Time;durP1;ratioP1;P1;durP2;ratioP2;P2;SDS_P1;SDS_P2;PMS_P1;PMS_P2;Temp;Humidity;BMP_temperature;BMP_pressure;BME280_temperature;BME280_humidity;BME280_pressure;Samples;Min_cycle;Max_cycle;Signal;HPM_P1;HPM_P2
2022/02/05 00:02:31;;;;;;;15.45;8.20;;;;;;;2.57;69.84;92619.06;2068609;69;20144;-72
2022/02/05 00:04:58;;;;;;;16.50;8.55;;;;;;;2.70;68.87;92610.47;2068420;69;20164;-72
2022/02/05 00:07:26;;;;;;;14.57;8.68;;;;;;;2.61;70.14;92605.50;2069991;69;20171;-72
2022/02/05 00:40:16;;;;;;;17.67;9.30;;;;;;;2.69;69.28;92628.44;2071878;69;20144;-70
2022/02/05 00:42:41;;;;;;;18.25;9.82;;;;;;;2.71;69.83;92636.22;2071632;69;20313;-67
2022/02/05 00:45:10;;;;;;;18.85;10.20;;;;;;;2.48;71.11;92644.66;2071731;69;20646;-70
2022/02/05 00:47:41;;;;;;;17.15;9.65;;;;;;;2.01;74.35;92643.97;2071762;69;20140;-69
2022/02/05 00:50:12;;;;;;;19.30;10.15;;;;;;;2.28;73.35;92649.13;2071825;69;20223;-70
2022/02/05 00:52:38;;;;;;;17.52;9.88;;;;;;;2.44;72.32;92656.13;2071749;69;20164;-71
2022/02/05 00:55:09;;;;;;;16.23;9.90;;;;;;;2.50;71.78;92658.72;2071684;69;20152;-68
2022/02/05 00:58:07;;;;;;;19.05;10.55;;;;;;;2.18;73.40;92673.94;2071730;69;20167;-71
2022/02/05 01:00:26;;;;;;;17.92;10.63;;;;;;;2.44;72.04;92674.84;2070786;69;20132;-68
2022/02/05 01:02:52;;;;;;;19.50;9.80;;;;;;;2.32;71.77;92684.88;2071599;69;20176;-68
2022/02/05 01:05:17;;;;;;;20.88;11.68;;;;;;;2.02;73.24;92683.59;2071535;69;20167;-71
2022/02/05 01:07:43;;;;;;;18.67;10.93;;;;;;;2.23;73.38;92686.91;2071520;69;20639;-67
2022/02/05 01:10:10;;;;;;;20.23;10.57;;;;;;;2.20;73.63;92685.25;2071965;69;20221;-67
2022/02/05 01:12:38;;;;;;;17.42;10.85;;;;;;;2.38;73.21;92694.47;2071794;69;20543;-67
2022/02/05 01:15:05;;;;;;;19.98;11.05;;;;;;;2.50;72.10;92690.00;2071667;69;20156;-68
2022/02/05 01:17:38;;;;;;;17.83;10.90;;;;;;;2.37;72.60;92687.44;2071765;69;20235;-75
2022/02/05 01:22:51;;;;;;;19.05;11.10;;;;;;;2.19;74.41;92710.78;2065824;69;20148;-68
2022/02/05 01:25:22;;;;;;;18.27;10.95;;;;;;;2.47;72.19;92701.50;2071717;69;20152;-70
2022/02/05 01:27:53;;;;;;;17.80;10.90;;;;;;;2.51;72.03;92693.53;2071738;69;20612;-71
2022/02/05 01:30:33;;;;;;;19.00;10.90;;;;;;;2.58;71.43;92694.81;2071644;69;20148;-70
2022/02/05 01:57:11;;;;;;;19.42;10.88;;;;;;;2.46;72.20;92686.88;2071547;69;20132;-80
2022/02/05 02:04:55;;;;;;;19.50;10.68;;;;;;;2.43;72.98;92692.78;2071501;69;20148;-71
2022/02/05 02:16:57;;;;;;;16.00;8.50;;;;;;;2.86;69.35;92666.00;2050124;70;20158;-68
2022/02/05 02:22:38;;;;;;;13.50;8.55;;;;;;;2.79;70.52;92646.03;2050053;70;20582;-76
2022/02/05 02:27:28;;;;;;;13.13;7.68;;;;;;;2.57;71.70;92655.19;2050044;70;20717;-68
2022/02/05 02:32:31;;;;;;;14.13;8.27;;;;;;;2.55;71.55;92661.28;2050022;70;20138;-68
2022/02/05 02:35:03;;;;;;;15.02;8.43;;;;;;;2.67;70.82;92669.97;2049994;70;20138;-68
2022/02/05 02:37:35;;;;;;;13.57;8.35;;;;;;;2.66;70.93;92660.16;2050181;70;20218;-68
2022/02/05 02:42:29;;;;;;;17.02;8.82;;;;;;;2.47;72.00;92662.59;2050243;70;20193;-68
2022/02/05 02:44:55;;;;;;;15.50;8.55;;;;;;;2.49;71.96;92665.56;2050213;70;20151;-68
2022/02/05 02:47:20;;;;;;;18.38;8.40;;;;;;;2.69;70.47;92666.63;2047265;70;20146;-69
2022/02/05 02:49:57;;;;;;;14.45;7.93;;;;;;;2.74;70.22;92662.91;2058813;69;20149;-74
2022/02/05 02:57:58;;;;;;;14.55;8.60;;;;;;;2.52;71.56;92658.88;2071648;69;20205;-81
2022/02/05 03:00:25;;;;;;;12.85;7.75;;;;;;;2.70;70.63;92671.63;2071472;69;20139;-77
2022/02/05 03:02:51;;;;;;;11.43;7.53;;;;;;;2.62;71.19;92670.19;2071507;69;20552;-75
2022/02/05 03:05:17;;;;;;;13.20;8.38;;;;;;;2.57;71.81;92674.63;2071467;69;20144;-68
2022/02/05 03:07:43;;;;;;;13.63;7.80;;;;;;;2.67;70.63;92667.19;2068209;69;20775;-69
2022/02/05 03:10:09;;;;;;;14.65;8.13;;;;;;;2.80;70.65;92660.66;2068171;69;20168;-68
2022/02/05 03:12:35;;;;;;;11.80;6.88;;;;;;;2.58;71.21;92662.22;2071468;69;20248;-68
2022/02/05 03:15:03;;;;;;;19.75;9.18;;;;;;;2.14;73.86;92665.25;2071532;69;20168;-69
2022/02/05 03:17:37;;;;;;;13.88;8.38;;;;;;;2.65;71.64;92661.44;2071438;69;20240;-67
2022/02/05 03:20:04;;;;;;;15.32;7.93;;;;;;;2.65;71.22;92666.25;2071214;69;20152;-68
2022/02/05 03:22:30;;;;;;;21.00;9.82;;;;;;;1.99;74.35;92682.66;2071529;69;20563;-72
2022/02/05 03:24:55;;;;;;;15.43;8.50;;;;;;;2.37;73.42;92687.44;2071416;69;20156;-67
2022/02/05 03:27:21;;;;;;;15.82;7.88;;;;;;;2.37;73.47;92695.03;2071302;69;20172;-67
2022/02/05 03:29:49;;;;;;;13.00;7.68;;;;;;;2.58;71.32;92694.81;2071108;69;20184;-68
2022/02/05 03:32:17;;;;;;;12.57;8.10;;;;;;;2.49;72.20;92698.91;2072629;69;20151;-67
2022/02/05 03:34:43;;;;;;;11.70;7.93;;;;;;;2.36;72.65;92705.41;2071974;69;20237;-70
2022/02/05 03:37:09;;;;;;;13.55;7.95;;;;;;;2.44;72.49;92703.38;2071613;69;20555;-78
2022/02/05 03:39:34;;;;;;;15.73;8.32;;;;;;;2.61;72.44;92700.00;2071387;69;20196;-69
2022/02/05 03:42:00;;;;;;;11.88;7.28;;;;;;;2.80;71.18;92708.66;2067911;69;20221;-67
2022/02/05 03:44:26;;;;;;;13.73;7.57;;;;;;;2.47;72.38;92705.00;2071185;69;20227;-68
2022/02/05 03:46:54;;;;;;;13.25;8.15;;;;;;;2.31;73.65;92702.84;2071315;69;20168;-68
2022/02/05 03:49:21;;;;;;;15.63;8.10;;;;;;;2.62;71.82;92692.41;2071217;69;20168;-74
2022/02/05 03:51:48;;;;;;;13.80;7.72;;;;;;;2.62;72.00;92687.59;2071330;69;20227;-71
2022/02/05 03:54:18;;;;;;;12.80;8.13;;;;;;;2.45;72.90;92690.22;2071443;69;20172;-68
2022/02/05 03:56:43;;;;;;;15.15;7.95;;;;;;;2.43;72.96;92701.13;2071355;69;20164;-68
2022/02/05 03:59:09;;;;;;;14.95;8.27;;;;;;;2.65;71.45;92699.63;2071276;69;20148;-67
2022/02/05 04:01:34;;;;;;;14.25;7.57;;;;;;;2.63;71.79;92714.06;2071309;69;20156;-66
2022/02/05 04:04:00;;;;;;;14.85;8.55;;;;;;;2.64;72.11;92723.16;2071349;69;20273;-70
2022/02/05 04:06:26;;;;;;;15.05;8.50;;;;;;;2.63;71.95;92721.69;2071211;69;20273;-70
2022/02/05 04:08:54;;;;;;;15.07;8.57;;;;;;;2.70;71.55;92723.69;2071439;69;20164;-79
2022/02/05 04:11:38;;;;;;;14.43;7.97;;;;;;;2.68;70.76;92717.97;2072382;69;20136;-73
2022/02/05 04:16:49;;;;;;;14.05;8.27;;;;;;;2.74;71.30;92738.69;2071256;69;20156;-73
2022/02/05 04:19:18;;;;;;;14.27;8.15;;;;;;;2.76;71.17;92727.75;2071038;69;20144;-78
2022/02/05 04:21:44;;;;;;;14.35;8.07;;;;;;;2.65;71.37;92733.72;2071063;69;20625;-67
2022/02/05 04:24:10;;;;;;;13.73;8.10;;;;;;;2.75;71.22;92734.63;2071293;69;20239;-67
2022/02/05 04:26:36;;;;;;;13.30;8.38;;;;;;;2.70;71.67;92745.94;2071142;69;20247;-67
2022/02/05 04:29:06;;;;;;;14.10;8.13;;;;;;;2.67;71.46;92747.81;2071199;69;20754;-67
2022/02/05 04:31:31;;;;;;;14.50;8.30;;;;;;;2.60;72.06;92742.25;2071237;69;20191;-66
2022/02/05 04:34:00;;;;;;;15.88;9.27;;;;;;;2.21;73.52;92750.63;2071190;69;20151;-67
2022/02/05 04:36:26;;;;;;;13.38;8.82;;;;;;;2.40;73.62;92757.84;2071026;69;20142;-67
2022/02/05 04:38:52;;;;;;;14.93;8.57;;;;;;;2.59;72.06;92763.75;2067786;69;20164;-67
2022/02/05 04:41:24;;;;;;;16.00;9.30;;;;;;;2.73;71.41;92765.00;2070982;69;20164;-69
2022/02/05 04:52:01;;;;;;;14.10;8.70;;;;;;;2.60;72.67;92790.22;2072016;69;20155;-68
2022/02/05 04:54:46;;;;;;;13.52;8.20;;;;;;;2.70;71.61;92793.19;2071973;69;20154;-68
2022/02/05 05:02:34;;;;;;;21.20;9.55;;;;;;;2.36;74.20;92813.78;2071821;69;20154;-71
2022/02/05 05:10:27;;;;;;;18.70;9.98;;;;;;;2.36;72.87;92833.22;2071747;69;20512;-68
2022/02/05 05:13:30;;;;;;;17.10;9.27;;;;;;;2.46;72.88;92845.25;2071739;69;20618;-68
2022/02/05 05:20:56;;;;;;;15.73;9.80;;;;;;;2.66;72.20;92835.28;2073194;69;20171;-69
2022/02/05 05:23:22;;;;;;;16.77;9.75;;;;;;;2.58;73.01;92834.53;2072494;69;20151;-68
2022/02/05 05:25:48;;;;;;;18.70;10.38;;;;;;;2.61;72.86;92847.31;2071853;69;20144;-68
2022/02/05 05:28:14;;;;;;;15.68;9.52;;;;;;;2.67;71.83;92850.66;2068174;69;20152;-81
2022/02/05 05:30:40;;;;;;;17.17;9.57;;;;;;;2.62;72.45;92851.59;2071766;69;20140;-79
2022/02/05 05:33:08;;;;;;;18.67;9.02;;;;;;;2.68;71.93;92851.38;2071886;69;20132;-78
2022/02/05 05:35:34;;;;;;;16.35;9.95;;;;;;;2.49;72.98;92848.97;2071240;69;20128;-76
2022/02/05 05:38:00;;;;;;;16.58;9.30;;;;;;;2.69;71.15;92853.59;2068629;69;20143;-73
2022/02/05 05:40:26;;;;;;;13.85;8.85;;;;;;;2.74;71.91;92855.47;2071858;69;20141;-70
2022/02/05 05:42:59;;;;;;;17.52;10.23;;;;;;;2.69;72.61;92861.22;2071864;69;20531;-70
2022/02/05 05:48:03;;;;;;;15.68;9.07;;;;;;;2.74;72.12;92879.75;2068497;69;20213;-70
2022/02/05 05:53:02;;;;;;;17.67;10.65;;;;;;;2.38;74.18;92891.75;2071819;69;20144;-72
2022/02/05 05:55:29;;;;;;;18.25;10.63;;;;;;;2.60;73.17;92898.63;2071773;69;20183;-69
2022/02/05 05:57:55;;;;;;;17.85;11.50;;;;;;;2.64;73.20;92903.81;2071869;69;20196;-69
2022/02/05 06:00:21;;;;;;;16.05;10.07;;;;;;;2.66;72.59;92904.03;2071742;69;20555;-69
2022/02/05 06:02:47;;;;;;;20.23;10.85;;;;;;;2.36;73.64;92921.38;2071766;69;20604;-70
2022/02/05 06:05:13;;;;;;;18.52;10.82;;;;;;;2.44;73.93;92928.44;2071768;69;20143;-70
2022/02/05 06:07:39;;;;;;;28.30;12.25;;;;;;;2.71;73.06;92931.66;2065814;69;20157;-78
2022/02/05 06:10:05;;;;;;;19.83;10.88;;;;;;;2.69;73.05;92922.38;2065075;69;20160;-81
2022/02/05 06:12:31;;;;;;;19.63;10.95;;;;;;;2.65;73.48;92939.41;2065075;69;20174;-82
2022/02/05 06:15:01;;;;;;;22.50;12.40;;;;;;;2.74;72.97;92930.53;2065132;69;20144;-70
2022/02/05 06:17:26;;;;;;;20.38;11.80;;;;;;;2.65;73.13;92938.66;2064612;69;20160;-72
2022/02/05 06:19:54;;;;;;;17.25;11.00;;;;;;;2.72;72.83;92949.06;2065042;69;20145;-73
2022/02/05 06:22:20;;;;;;;20.83;12.20;;;;;;;2.81;72.07;92951.31;2065158;69;20172;-73
2022/02/05 06:24:46;;;;;;;18.02;11.35;;;;;;;2.80;72.74;92960.94;2065257;69;20589;-71
2022/02/05 06:27:17;;;;;;;22.25;12.15;;;;;;;2.55;74.00;92969.78;2065041;69;20689;-69
2022/02/05 06:29:43;;;;;;;22.15;13.43;;;;;;;2.65;73.50;92974.81;2065137;69;20141;-69
2022/02/05 06:32:09;;;;;;;20.13;12.57;;;;;;;2.25;75.84;92978.78;2065212;69;20177;-70
2022/02/05 06:34:35;;;;;;;20.80;12.13;;;;;;;2.44;75.14;92980.50;2064921;69;20198;-69
2022/02/05 06:37:01;;;;;;;19.27;12.13;;;;;;;2.64;73.71;92984.44;2065081;69;20141;-69
2022/02/05 06:39:27;;;;;;;22.55;11.95;;;;;;;2.78;72.52;92994.84;2065017;69;20159;-75
2022/02/05 06:41:53;;;;;;;20.73;12.07;;;;;;;2.76;72.19;92996.72;2065036;69;20153;-81
2022/02/05 06:44:19;;;;;;;20.17;11.70;;;;;;;2.83;73.11;92998.75;2065011;69;20634;-69
2022/02/05 06:46:44;;;;;;;17.83;11.57;;;;;;;2.86;72.29;92996.91;2065154;69;20133;-81
2022/02/05 06:49:10;;;;;;;19.17;11.38;;;;;;;2.81;71.81;92998.56;2064982;69;20206;-72
2022/02/05 06:51:36;;;;;;;21.00;12.40;;;;;;;2.57;73.39;92997.03;2065086;69;20151;-76
2022/02/05 06:54:05;;;;;;;29.05;17.45;;;;;;;2.52;75.26;93017.38;2064928;69;20256;-71
2022/02/05 06:56:30;;;;;;;25.98;16.30;;;;;;;2.71;73.79;93017.81;2064957;69;20137;-79
2022/02/05 06:59:00;;;;;;;25.08;13.85;;;;;;;2.34;76.00;93029.53;2065038;69;20211;-71
2022/02/05 07:01:25;;;;;;;28.20;14.05;;;;;;;2.57;74.88;93027.63;2065013;69;20605;-73
2022/02/05 07:03:51;;;;;;;26.98;15.10;;;;;;;2.75;74.33;93026.56;2065112;69;20180;-70
2022/02/05 07:06:16;;;;;;;29.35;15.90;;;;;;;2.69;73.55;93031.53;2065227;69;20226;-69
2022/02/05 07:08:43;;;;;;;27.67;14.82;;;;;;;2.80;73.59;93039.53;2071170;69;20249;-69
2022/02/05 07:11:09;;;;;;;27.95;15.57;;;;;;;2.79;73.50;93038.06;2072839;69;20140;-70
2022/02/05 07:13:35;;;;;;;25.67;14.18;;;;;;;2.83;72.63;93040.47;2071985;69;20222;-76
2022/02/05 07:16:28;;;;;;;26.10;14.85;;;;;;;2.88;72.88;93049.91;2071678;69;20141;-75
2022/02/05 07:21:31;;;;;;;27.70;15.82;;;;;;;2.61;74.66;93053.03;2071668;69;20144;-83
2022/02/05 07:29:20;;;;;;;29.92;17.13;;;;;;;2.75;74.48;93057.13;2071775;69;20210;-68
2022/02/05 07:31:52;;;;;;;30.30;16.55;;;;;;;2.93;74.00;93052.56;2071663;69;20144;-68
2022/02/05 07:34:21;;;;;;;29.88;16.45;;;;;;;2.98;73.51;93057.19;2071462;69;20148;-69
2022/02/05 07:36:49;;;;;;;24.50;15.30;;;;;;;3.13;73.27;93061.31;2071543;69;20155;-79
2022/02/05 07:39:15;;;;;;;24.65;14.48;;;;;;;3.21;72.91;93068.38;2071604;69;20227;-69
2022/02/05 07:41:42;;;;;;;25.20;14.57;;;;;;;3.23;72.87;93071.31;2071634;69;20235;-69
2022/02/05 07:44:12;;;;;;;26.65;15.73;;;;;;;2.91;74.07;93063.47;2071684;69;20160;-70
2022/02/05 07:46:38;;;;;;;23.90;14.98;;;;;;;2.91;74.04;93068.28;2071695;69;20140;-72
2022/02/05 07:49:05;;;;;;;23.13;14.68;;;;;;;3.20;73.07;93069.63;2071699;69;20604;-69
2022/02/05 07:51:31;;;;;;;30.42;15.90;;;;;;;3.25;73.11;93065.19;2071529;69;20144;-69
2022/02/05 07:53:56;;;;;;;25.20;15.73;;;;;;;3.24;72.61;93064.47;2071638;69;20584;-70
2022/02/05 07:56:23;;;;;;;25.80;15.15;;;;;;;3.17;73.17;93076.34;2071587;69;20179;-69
2022/02/05 07:58:49;;;;;;;24.73;14.45;;;;;;;3.33;72.50;93081.91;2071591;69;20155;-69
2022/02/05 08:01:15;;;;;;;29.50;16.55;;;;;;;3.11;72.81;93083.34;2068145;69;20524;-70
2022/02/05 08:03:40;;;;;;;28.00;16.08;;;;;;;3.04;73.96;93068.88;2071603;69;20159;-78
2022/02/05 08:06:14;;;;;;;32.67;15.80;;;;;;;2.82;74.94;93075.13;2071378;69;20600;-80
2022/02/05 08:08:40;;;;;;;24.17;14.98;;;;;;;3.23;74.30;93076.88;2071497;69;20151;-78
2022/02/05 08:11:10;;;;;;;26.80;14.55;;;;;;;3.50;72.81;93090.47;2071687;69;20152;-77
2022/02/05 08:13:35;;;;;;;24.05;14.27;;;;;;;3.62;72.71;93091.59;2071577;69;20155;-76
2022/02/05 08:17:06;;;;;;;24.33;14.90;;;;;;;3.77;72.36;93091.59;2068355;69;20164;-75
2022/02/05 08:18:56;;;;;;;23.08;13.18;;;;;;;3.81;71.36;93096.78;2070321;69;20246;-83
2022/02/05 08:21:22;;;;;;;23.52;14.25;;;;;;;3.95;71.08;93089.72;2071988;69;20151;-75
2022/02/05 08:23:48;;;;;;;25.20;15.40;;;;;;;3.69;71.03;93098.47;2072206;69;20129;-74
2022/02/05 08:26:14;;;;;;;25.30;15.80;;;;;;;3.50;72.06;93104.38;2072197;69;20162;-69
2022/02/05 08:28:40;;;;;;;22.95;14.82;;;;;;;3.69;72.56;93104.03;2072259;69;20178;-68
2022/02/05 08:31:07;;;;;;;28.83;15.85;;;;;;;4.01;71.28;93107.00;2072240;69;20128;-70
2022/02/05 08:33:33;;;;;;;24.77;15.07;;;;;;;4.11;71.00;93112.72;2072373;69;20239;-68
2022/02/05 08:35:59;;;;;;;24.98;15.90;;;;;;;4.22;70.36;93115.16;2072254;69;20140;-69
2022/02/05 08:38:24;;;;;;;24.75;15.48;;;;;;;4.23;69.67;93108.25;2072073;69;20515;-69
2022/02/05 08:40:50;;;;;;;33.33;18.60;;;;;;;3.98;71.21;93104.56;2068716;69;20144;-69
2022/02/05 08:43:15;;;;;;;31.88;17.55;;;;;;;4.19;70.44;93109.94;2072281;69;20176;-78
2022/02/05 08:45:41;;;;;;;28.92;16.80;;;;;;;4.46;69.62;93119.38;2068685;69;20175;-74
2022/02/05 08:48:07;;;;;;;30.75;17.98;;;;;;;4.56;70.39;93119.53;2072117;69;20202;-74
2022/02/05 08:50:33;;;;;;;34.63;20.00;;;;;;;4.59;69.93;93113.56;2072097;69;20133;-79
2022/02/05 08:52:59;;;;;;;32.63;19.02;;;;;;;4.78;69.32;93104.78;2072256;69;20528;-74
2022/02/05 08:55:28;;;;;;;27.70;17.30;;;;;;;4.88;68.06;93106.97;2073038;69;20565;-69
2022/02/05 08:57:57;;;;;;;31.38;18.67;;;;;;;4.41;68.92;93120.31;2072916;69;20151;-68
2022/02/05 09:00:25;;;;;;;29.60;18.25;;;;;;;4.78;68.77;93115.94;2072243;69;20176;-69
2022/02/05 09:03:02;;;;;;;25.98;16.40;;;;;;;4.90;68.47;93119.03;2071870;69;20557;-68
2022/02/05 09:08:37;;;;;;;44.92;22.88;;;;;;;4.74;68.95;93114.81;2067641;69;20164;-68
2022/02/05 09:11:15;;;;;;;29.65;17.95;;;;;;;4.80;69.37;93123.72;2072026;69;20573;-72
2022/02/05 09:13:57;;;;;;;28.17;15.98;;;;;;;4.89;68.38;93114.75;2072009;69;20558;-70
2022/02/05 09:16:23;;;;;;;25.90;17.40;;;;;;;4.94;68.02;93118.66;2071966;69;20144;-68
2022/02/05 09:18:50;;;;;;;27.65;17.08;;;;;;;4.69;68.82;93118.56;2071930;69;20616;-69
2022/02/05 09:21:16;;;;;;;30.63;19.73;;;;;;;5.00;67.41;93114.34;2071795;69;20592;-73
2022/02/05 09:23:53;;;;;;;28.20;19.13;;;;;;;4.94;67.88;93108.22;2072004;69;20246;-69
2022/02/05 09:26:18;;;;;;;27.13;18.15;;;;;;;5.05;67.70;93124.56;2072112;69;20144;-69
2022/02/05 09:28:44;;;;;;;27.27;17.25;;;;;;;5.14;67.74;93123.22;2071712;69;20128;-70
2022/02/05 09:33:39;;;;;;;24.25;15.35;;;;;;;5.01;67.92;93129.06;2071907;69;20141;-70
2022/02/05 09:36:06;;;;;;;25.55;15.13;;;;;;;5.17;67.06;93132.50;2071725;69;20205;-84
2022/02/05 09:38:34;;;;;;;23.30;15.50;;;;;;;5.35;67.42;93146.00;2072036;69;20159;-82
2022/02/05 09:41:00;;;;;;;23.90;15.75;;;;;;;5.38;67.77;93143.38;2071946;69;20159;-81
2022/02/05 09:43:28;;;;;;;22.40;15.10;;;;;;;5.55;67.54;93141.44;2071914;69;20160;-81
2022/02/05 09:45:58;;;;;;;23.30;14.95;;;;;;;5.71;66.92;93147.66;2068600;69;20144;-81
2022/02/05 09:48:28;;;;;;;24.90;15.13;;;;;;;5.84;66.01;93144.59;2072133;69;20159;-75
2022/02/05 09:50:54;;;;;;;41.08;20.20;;;;;;;6.31;66.14;93151.31;2071824;69;20148;-69
2022/02/05 09:53:21;;;;;;;33.35;18.60;;;;;;;6.67;66.17;93152.13;2071946;69;20154;-70
2022/02/05 09:55:50;;;;;;;37.05;19.40;;;;;;;7.02;65.77;93144.47;2071705;69;20144;-70
2022/02/05 09:58:17;;;;;;;27.23;16.73;;;;;;;7.39;65.31;93148.13;2071841;69;20183;-70
2022/02/05 10:01:12;;;;;;;25.98;15.68;;;;;;;7.39;62.04;93151.66;2071746;69;20612;-68
2022/02/05 10:03:39;;;;;;;28.30;16.98;;;;;;;7.43;62.94;93148.47;2071963;69;20237;-69
2022/02/05 10:06:08;;;;;;;24.00;14.15;;;;;;;8.12;62.96;93147.47;2068458;69;20144;-69
2022/02/05 10:08:35;;;;;;;22.80;14.35;;;;;;;7.99;60.18;93156.28;2071817;69;20155;-68
2022/02/05 10:11:02;;;;;;;22.52;15.30;;;;;;;8.20;61.61;93150.16;2071909;69;20160;-69
2022/02/05 10:13:29;;;;;;;24.00;15.68;;;;;;;8.83;59.11;93150.03;2071972;69;20243;-69
2022/02/05 10:15:56;;;;;;;20.52;13.30;;;;;;;8.54;57.23;93147.19;2071877;69;20148;-69
2022/02/05 10:18:23;;;;;;;17.73;11.82;;;;;;;9.05;56.60;93144.59;2071834;69;20174;-70
2022/02/05 10:20:49;;;;;;;18.25;11.98;;;;;;;8.81;55.82;93149.91;2071952;69;20148;-75
2022/02/05 10:23:15;;;;;;;19.48;12.00;;;;;;;9.57;56.84;93141.31;2072025;69;20198;-70
2022/02/05 10:25:41;;;;;;;16.17;11.40;;;;;;;9.97;55.57;93143.44;2071843;69;20190;-81
2022/02/05 10:28:12;;;;;;;26.48;16.30;;;;;;;10.63;54.80;93134.59;2071801;69;20162;-81
2022/02/05 10:30:44;;;;;;;7.20;5.65;;;;;;;9.98;52.31;93139.28;2071646;69;20276;-76
2022/02/05 10:33:25;;;;;;;7.68;4.82;;;;;;;9.97;51.20;93132.19;2071348;69;20146;-70
2022/02/05 10:38:33;;;;;;;7.00;5.13;;;;;;;11.44;49.23;93142.00;2071762;69;20152;-73
2022/02/05 10:43:52;;;;;;;6.05;2.67;;;;;;;11.83;44.59;93141.69;2075575;69;20148;-70
2022/02/05 10:46:18;;;;;;;5.70;3.15;;;;;;;12.61;43.74;93144.34;2073940;69;20639;-77
2022/02/05 10:48:43;;;;;;;3.42;2.60;;;;;;;13.56;41.35;93146.41;2072220;69;20237;-77
2022/02/05 10:51:09;;;;;;;4.10;2.70;;;;;;;13.51;41.96;93147.50;2071673;69;20229;-70
2022/02/05 10:53:44;;;;;;;3.53;2.65;;;;;;;13.77;41.07;93148.28;2071821;69;20149;-72
2022/02/05 10:56:19;;;;;;;4.60;3.10;;;;;;;14.47;39.85;93136.50;2071732;69;20232;-70
2022/02/05 11:07:06;;;;;;;4.63;2.00;;;;;;;15.41;35.83;93137.81;2071663;69;20148;-70
2022/02/05 11:09:32;;;;;;;4.38;2.97;;;;;;;16.50;35.51;93142.34;2072089;69;20148;-70
2022/02/05 11:20:09;;;;;;;5.78;3.80;;;;;;;18.56;30.54;93141.00;2071765;69;20152;-69
2022/02/05 11:22:39;;;;;;;5.72;4.47;;;;;;;19.32;29.11;93147.38;2071731;69;20737;-71
2022/02/05 11:25:07;;;;;;;6.05;3.63;;;;;;;20.53;27.22;93138.56;2071761;69;20132;-71
2022/02/05 11:27:33;;;;;;;4.75;3.13;;;;;;;20.18;27.61;93146.03;2072043;69;20275;-71
2022/02/05 11:30:27;;;;;;;4.63;3.40;;;;;;;20.45;26.24;93146.88;2071851;69;20156;-71
2022/02/05 11:33:00;;;;;;;4.13;3.40;;;;;;;21.88;26.76;93145.97;2071758;69;20152;-70
2022/02/05 11:35:41;;;;;;;4.68;3.65;;;;;;;23.66;24.99;93147.16;2071628;69;20147;-68
2022/02/05 11:38:07;;;;;;;5.65;3.85;;;;;;;24.59;25.17;93143.03;2071699;69;20232;-72
2022/02/05 11:40:41;;;;;;;6.72;2.92;;;;;;;23.25;23.14;93149.19;2071683;69;20690;-71
2022/02/05 11:43:27;;;;;;;6.32;4.00;;;;;;;23.53;21.81;93146.88;2071721;69;20145;-69
2022/02/05 11:46:04;;;;;;;3.45;2.97;;;;;;;22.57;21.64;93149.81;2071695;69;20172;-70
2022/02/05 11:48:37;;;;;;;4.15;2.33;;;;;;;24.66;22.35;93143.13;2071655;69;20156;-69
2022/02/05 11:51:46;;;;;;;2.47;2.20;;;;;;;24.87;20.22;93133.34;2071585;69;20232;-69
2022/02/05 11:54:17;;;;;;;2.75;2.40;;;;;;;25.21;22.32;93130.25;2072105;69;20172;-70
2022/02/05 11:57:22;;;;;;;;;;;;;;;;;;;;;
2022/02/05 11:59:56;;;;;;;4.38;3.25;;;;;;;26.04;18.93;93118.22;2071942;69;20179;-76
2022/02/05 12:02:22;;;;;;;4.28;2.38;;;;;;;26.76;19.10;93122.47;2072163;69;20152;-75
2022/02/05 12:05:10;;;;;;;6.22;3.25;;;;;;;23.96;19.92;93116.09;2072027;69;20232;-70
2022/02/05 12:07:35;;;;;;;3.58;2.30;;;;;;;24.36;20.80;93109.53;2068749;69;20241;-70
2022/02/05 12:10:01;;;;;;;3.65;2.47;;;;;;;23.87;19.05;93110.88;2072086;69;20140;-70
2022/02/05 12:12:38;;;;;;;7.90;4.10;;;;;;;25.88;18.46;93107.25;2072223;69;20164;-73
2022/02/05 12:15:07;;;;;;;4.88;3.08;;;;;;;26.05;18.46;93116.78;2072392;69;20148;-76
2022/02/05 12:20:58;;;;;;;29.38;20.02;;;;;;;26.96;18.14;93107.41;2072742;69;20235;-70
2022/02/05 12:26:25;;;;;;;4.07;3.60;;;;;;;25.65;17.85;93119.94;2072682;69;20231;-81
2022/02/05 12:28:56;;;;;;;1.92;1.40;;;;;;;22.07;19.96;93115.63;2072923;69;20196;-70
2022/02/05 12:31:25;;;;;;;2.72;1.25;;;;;;;21.11;20.45;93106.63;2076092;69;20163;-69
2022/02/05 12:33:53;;;;;;;4.07;2.50;;;;;;;20.01;23.34;93098.31;2075249;69;20148;-69
2022/02/05 12:36:43;;;;;;;4.75;3.10;;;;;;;17.90;23.54;93092.84;2072502;69;20148;-71
2022/02/05 12:39:15;;;;;;;6.47;3.17;;;;;;;17.27;25.43;93090.25;2072496;69;20141;-69
2022/02/05 12:42:03;;;;;;;6.25;3.17;;;;;;;16.36;25.54;93081.28;2072563;69;20144;-69
2022/02/05 12:44:30;;;;;;;11.82;5.80;;;;;;;14.68;28.59;93083.78;2072380;69;20144;-69
2022/02/05 12:47:05;;;;;;;9.77;3.70;;;;;;;13.60;29.19;93083.66;2072317;69;20612;-69
2022/02/05 12:49:39;;;;;;;6.50;3.20;;;;;;;13.52;29.42;93086.03;2068758;69;20220;-67
2022/02/05 12:52:06;;;;;;;5.20;2.72;;;;;;;13.83;29.52;93075.03;2072107;69;20294;-69
2022/02/05 12:54:34;;;;;;;10.20;3.70;;;;;;;12.94;31.13;93071.47;2068638;69;20677;-69
2022/02/05 12:57:00;;;;;;;10.48;3.20;;;;;;;12.41;31.92;93074.00;2072125;69;20140;-67
2022/02/05 12:59:30;;;;;;;5.13;3.20;;;;;;;12.19;32.22;93072.66;2068667;69;20159;-68
2022/02/05 13:01:59;;;;;;;7.25;4.43;;;;;;;11.94;33.14;93068.34;2071881;69;20148;-68
2022/02/05 13:04:29;;;;;;;7.20;3.40;;;;;;;11.38;35.07;93071.16;2071845;69;20141;-69
2022/02/05 13:07:21;;;;;;;10.70;3.42;;;;;;;10.74;35.97;93066.34;2071880;69;20247;-70
2022/02/05 13:09:58;;;;;;;11.05;4.35;;;;;;;10.86;36.26;93063.59;2071409;69;20206;-68
2022/02/05 13:12:35;;;;;;;9.40;3.50;;;;;;;10.66;36.03;93063.72;2072068;69;20149;-69
2022/02/05 13:15:25;;;;;;;6.95;3.50;;;;;;;10.00;36.61;93074.00;2072071;69;20136;-69
2022/02/05 13:36:28;;;;;;;21.80;10.80;;;;;;;9.00;38.00;93062.13;2071962;69;20495;-73
2022/02/05 13:42:23;;;;;;;14.13;6.45;;;;;;;8.40;40.41;93068.31;2072253;69;20160;-68
2022/02/05 13:47:20;;;;;;;33.13;13.80;;;;;;;7.99;41.32;93070.09;2072448;69;20184;-68
2022/02/05 13:50:02;;;;;;;31.40;15.20;;;;;;;7.83;41.50;93055.59;2073265;69;20348;-68
2022/02/05 13:52:48;;;;;;;35.60;15.93;;;;;;;7.83;41.87;93057.63;2069330;69;20586;-73
2022/02/05 13:55:21;;;;;;;41.95;19.15;;;;;;;7.77;43.61;93062.78;2070992;69;20160;-72
2022/02/05 13:57:56;;;;;;;;;;;;;;;7.39;43.56;93067.63;2075287;69;20141;-68
2022/02/05 14:00:23;;;;;;;292.40;94.15;;;;;;;7.62;45.80;93061.69;2074953;69;20080;-68
2022/02/05 14:03:00;;;;;;;150.27;52.60;;;;;;;7.44;43.57;93054.69;2075478;69;20666;-69
2022/02/05 14:05:26;;;;;;;89.03;34.00;;;;;;;7.19;42.11;93057.63;2075306;69;20148;-68
2022/02/05 14:07:52;;;;;;;28.75;12.77;;;;;;;7.10;41.30;93058.31;2074888;69;20231;-68
2022/02/05 14:10:20;;;;;;;30.40;13.63;;;;;;;7.25;41.71;93060.19;2069395;69;20140;-74
2022/02/05 14:12:54;;;;;;;26.05;11.77;;;;;;;7.11;42.39;93060.56;2069163;69;20175;-74
2022/02/05 14:15:26;;;;;;;25.58;11.63;;;;;;;7.31;44.98;93069.06;2072683;69;20231;-77
2022/02/05 14:18:06;;;;;;;27.90;9.25;;;;;;;6.97;43.11;93078.28;2073312;69;20243;-69
2022/02/05 14:20:37;;;;;;;11.30;6.13;;;;;;;6.87;43.50;93075.41;2073815;69;20176;-79
2022/02/05 14:23:10;;;;;;;17.30;7.30;;;;;;;6.68;44.75;93084.38;2072289;69;20221;-73
2022/02/05 14:25:48;;;;;;;15.38;7.85;;;;;;;6.32;45.90;93073.75;2071901;69;20555;-75
2022/02/05 14:28:26;;;;;;;21.60;10.50;;;;;;;6.42;43.73;93068.28;2072100;69;20143;-78
2022/02/05 14:31:04;;;;;;;23.20;11.45;;;;;;;6.09;45.21;93069.16;2071296;69;20172;-72
2022/02/05 14:33:41;;;;;;;18.85;8.23;;;;;;;6.70;46.09;93072.63;2068689;69;20141;-78
2022/02/05 14:36:20;;;;;;;21.10;10.45;;;;;;;6.18;45.97;93072.59;2072010;69;20568;-75
2022/02/05 14:41:31;;;;;;;14.35;8.02;;;;;;;5.96;45.22;93071.50;2071985;69;20163;-70
2022/02/05 14:43:58;;;;;;;17.50;8.68;;;;;;;5.91;45.42;93066.84;2068541;69;20170;-73
2022/02/05 14:46:24;;;;;;;15.18;8.05;;;;;;;5.77;47.79;93074.78;2071943;69;20140;-81
2022/02/05 14:48:49;;;;;;;21.42;7.93;;;;;;;5.50;46.36;93069.78;2071764;69;20206;-71
2022/02/05 14:51:15;;;;;;;13.07;7.75;;;;;;;5.31;46.62;93072.31;2071689;69;20612;-69
2022/02/05 14:53:41;;;;;;;14.13;7.68;;;;;;;5.37;47.14;93072.13;2071740;69;20163;-71